Latest Weather Observations for Townsville

IDQ60801

Issued at 8:05 pm EST Saturday 1 November 2014 (issued every 30 minutes, with the page automatically refreshed every 10 minutes)

About weather observations | Map of weather stations | Latest weather observations for QLD | Other Formats
Station Details ID: 032040 Name: TOWNSVILLE AERO Lat: -19.25 Lon: 146.77 Height: 4.34 m
Data from the previous 72 hours. | See also: Recent months at Townsville
Date/Time
EST
Temp
°C
App
Temp
°C
Dew
Point
Rel
Hum
%
Delta-T
°C
Wind Press
QNH
hPa
Press
MSL
hPa
Rain
since 9 am
mm
Dir
 
Spd
km/h
Gust
km/h
Spd
kts
Gust
kts
01/08:00pm 24.5 25.7 19.9 75 3.0 NNE 13 15 7 8 1013.7 - 0.0
01/07:30pm 24.4 25.5 19.6 74 3.1 NE 13 17 7 9 1013.3 - 0.0
01/07:00pm 24.9 25.9 19.5 72 3.5 NE 13 19 7 10 1012.9 - 0.0
01/06:30pm 25.2 25.0 19.4 70 3.7 NE 19 24 10 13 1012.5 - 0.0
01/06:00pm 25.6 25.3 19.6 69 3.9 ENE 20 28 11 15 1012.0 1011.9 0.0
01/05:30pm 26.1 24.6 19.4 66 4.3 ENE 26 32 14 17 1011.5 - 0.0
01/05:00pm 26.5 24.6 19.4 65 4.6 ENE 28 32 15 17 1011.3 - 0.0
01/04:30pm 26.9 25.4 19.5 64 4.8 ENE 26 32 14 17 1011.2 - 0.0
01/04:00pm 27.4 25.8 19.2 61 5.3 ENE 26 33 14 18 1011.0 - 0.0
01/03:30pm 28.2 26.2 19.2 58 5.8 ENE 28 35 15 19 1011.1 - 0.0
01/03:00pm 28.4 26.6 18.8 56 6.2 ENE 26 32 14 17 1011.3 1011.2 0.0
01/02:30pm 29.2 27.5 19.0 54 6.6 ENE 26 33 14 18 1011.7 - 0.0
01/02:00pm 29.3 27.2 18.9 53 6.7 ENE 28 33 15 18 1012.0 - 0.0
01/01:30pm 29.1 26.9 18.7 53 6.7 ENE 28 33 15 18 1012.6 - 0.0
01/01:00pm 28.0 26.5 18.6 56 6.0 ENE 24 33 13 18 1013.1 - 0.0
01/12:30pm 28.9 27.6 19.0 55 6.4 NE 24 32 13 17 1013.6 - 0.0
01/12:00pm 28.4 26.7 18.9 56 6.1 ENE 26 33 14 18 1014.1 1014.0 0.0
01/11:30am 28.6 27.6 18.8 55 6.3 ENE 22 30 12 16 1014.6 - 0.0
01/11:00am 28.4 26.7 18.9 56 6.1 ENE 26 32 14 17 1014.9 - 0.0
01/10:00am 28.1 27.2 19.1 58 5.8 ENE 22 28 12 15 1015.4 - 0.0
01/09:30am 27.6 27.1 19.1 59 5.5 ENE 20 28 11 15 1015.6 - 0.0
01/09:00am 27.2 26.6 18.8 60 5.4 ENE 20 28 11 15 1015.2 1015.1 0.0
01/08:30am 27.2 26.9 19.1 61 5.2 NNE 19 22 10 12 1015.2 - 0.0
01/08:00am 26.9 27.0 19.1 62 5.0 ENE 17 26 9 14 1015.1 - 0.0
01/07:30am 26.7 26.7 18.9 62 5.0 ENE 17 24 9 13 1014.8 - 0.0
01/07:00am 25.8 26.1 19.6 68 4.0 NE 17 20 9 11 1014.7 - 0.0
01/06:30am 25.1 25.6 19.3 70 3.7 NE 15 19 8 10 1014.2 - 0.0
01/06:00am 24.0 25.0 19.5 76 2.9 NE 13 17 7 9 1013.9 1013.8 0.0
01/05:30am 24.0 24.5 19.3 75 3.0 NE 15 19 8 10 1013.6 - 0.0
01/05:00am 24.1 24.5 19.1 73 3.2 NE 15 17 8 9 1013.4 - 0.0
01/04:30am 24.2 24.0 19.4 74 3.1 NE 19 24 10 13 1013.2 - 0.0
01/04:00am 24.3 24.5 19.3 73 3.2 ENE 17 19 9 10 1013.0 - 0.0
01/03:30am 24.5 24.5 19.0 71 3.5 NE 17 24 9 13 1012.7 - 0.0
01/03:00am 24.3 24.7 19.0 72 3.4 NE 15 19 8 10 1012.6 1012.5 0.0
01/02:30am 24.4 24.5 19.1 72 3.4 ENE 17 22 9 12 1012.6 - 0.0
01/02:00am 24.6 24.4 19.8 74 3.1 ENE 20 28 11 15 1012.8 - 0.0
01/01:30am 24.7 24.0 19.6 73 3.3 NE 22 30 12 16 1013.0 - 0.0
01/01:00am 25.0 25.1 20.4 75 3.0 NE 20 28 11 15 1013.3 - 0.0
01/12:30am 24.9 24.9 20.1 74 3.1 ENE 20 28 11 15 1013.6 - 0.0
01/12:00am 24.7 24.7 20.2 76 2.9 ENE 20 26 11 14 1013.9 1013.8 0.0
 
Date/Time
EST
Temp
°C
App
Temp
°C
Dew
Point
Rel
Hum
%
Delta-T
°C
Wind Press
QNH
hPa
Press
MSL
hPa
Rain
since 9 am
mm
Dir
 
Spd
km/h
Gust
km/h
Spd
kts
Gust
kts
31/11:30pm 24.8 24.4 20.2 75 3.0 ENE 22 28 12 15 1014.2 - 0.0
31/11:00pm 24.9 24.3 19.8 73 3.3 ENE 22 30 12 16 1014.2 - 0.0
31/10:30pm 25.0 24.9 19.9 73 3.3 ENE 20 28 11 15 1014.6 - 0.0
31/10:00pm 25.1 25.4 20.5 75 3.0 ENE 19 28 10 15 1014.5 - 0.0
31/09:30pm 25.1 23.9 20.0 73 3.3 ENE 26 32 14 17 1014.4 - 0.0
31/09:00pm 25.2 25.2 20.1 73 3.3 ENE 20 26 11 14 1014.4 1014.3 0.0
31/08:30pm 25.2 25.4 19.3 70 3.8 ENE 17 22 9 12 1014.1 - 0.0
31/08:00pm 25.2 25.6 19.8 72 3.5 ENE 17 26 9 14 1013.7 - 0.0
31/07:30pm 25.3 25.4 19.9 72 3.5 NE 19 24 10 13 1013.5 - 0.0
31/07:00pm 25.2 26.0 19.8 72 3.5 ENE 15 19 8 10 1013.3 - 0.0
31/06:30pm 25.4 25.8 19.8 71 3.6 ENE 17 22 9 12 1013.2 - 0.0
31/06:00pm 25.9 26.3 19.9 69 3.9 ENE 17 22 9 12 1012.8 1012.7 0.0
31/05:30pm 26.6 25.9 19.5 65 4.6 ENE 22 28 12 15 1012.3 - 0.0
31/05:00pm 27.0 25.8 19.2 62 5.0 ENE 24 30 13 16 1011.9 - 0.0
31/04:30pm 27.5 26.1 19.6 62 5.1 ENE 26 32 14 17 1011.7 - 0.0
31/04:00pm 27.6 26.4 19.2 60 5.4 ENE 24 30 13 16 1011.7 - 0.0
31/03:30pm 28.1 26.8 19.1 58 5.8 ENE 24 32 13 17 1011.8 - 0.0
31/03:00pm 27.8 26.4 18.8 58 5.8 ENE 24 32 13 17 1012.0 1011.9 0.0
31/02:30pm 28.6 27.5 18.6 54 6.4 NE 22 30 12 16 1012.1 - 0.0
31/02:00pm 28.3 27.8 19.2 57 5.9 ENE 20 26 11 14 1012.1 - 0.0
31/01:30pm 28.2 27.7 18.7 56 6.1 NE 19 28 10 15 1012.5 - 0.0
31/01:00pm 28.9 28.4 19.0 55 6.4 NE 20 28 11 15 1013.0 - 0.0
31/12:30pm 29.3 28.9 18.8 53 6.8 NE 19 26 10 14 1013.5 - 0.0
31/12:00pm 29.0 28.0 18.9 54 6.5 ENE 22 30 12 16 1014.0 1013.9 0.0
31/11:30am 28.0 27.5 19.2 58 5.7 ENE 20 32 11 17 1014.5 - 0.0
31/11:00am 28.6 28.2 18.8 55 6.3 NE 19 28 10 15 1014.9 - 0.0
31/10:30am 27.6 27.2 19.4 61 5.3 NE 20 28 11 15 1015.1 - 0.0
31/10:00am 27.8 27.2 18.9 58 5.7 NE 20 26 11 14 1015.5 - 0.0
31/09:30am 28.3 27.9 19.0 57 6.0 ENE 19 26 10 14 1015.6 - 0.0
31/09:00am 27.7 27.8 19.2 60 5.5 ENE 17 24 9 13 1015.3 1015.2 0.0
31/08:30am 27.2 27.9 18.8 60 5.4 NNE 13 20 7 11 1014.9 - 0.0
31/08:00am 26.7 27.3 18.7 61 5.1 NNE 13 19 7 10 1014.7 - 0.0
31/07:30am 26.2 26.8 18.7 63 4.8 N 13 19 7 10 1014.6 - 0.0
31/07:00am 25.8 26.3 19.3 67 4.2 NE 15 19 8 10 1014.2 - 0.0
31/06:30am 24.6 25.5 19.3 72 3.4 NNE 13 15 7 8 1013.9 - 0.0
31/06:00am 23.8 24.3 19.3 76 2.9 NE 15 19 8 10 1013.5 1013.4 0.0
31/05:30am 23.1 24.0 19.3 79 2.4 NNE 13 19 7 10 1013.4 - 0.0
31/05:00am 23.2 24.1 19.3 79 2.5 NNE 13 17 7 9 1013.2 - 0.0
31/04:30am 23.7 23.7 19.0 75 3.0 NNE 17 22 9 12 1013.0 - 0.0
31/04:00am 24.0 24.0 19.0 73 3.2 NNE 17 26 9 14 1012.8 - 0.0
31/03:30am 24.5 24.6 19.2 72 3.4 NE 17 24 9 13 1012.5 - 0.0
31/03:00am 24.6 24.4 19.3 72 3.4 NE 19 28 10 15 1012.4 1012.3 0.0
31/02:30am 24.3 24.0 19.5 74 3.1 NNE 20 30 11 16 1012.5 - 0.0
31/02:00am 24.2 23.7 19.9 77 2.8 NNE 22 26 12 14 1012.4 - 0.0
31/01:30am 24.3 25.1 19.8 76 2.9 N 15 19 8 10 1012.7 - 0.0
31/01:00am 24.5 25.3 19.9 75 3.0 NNE 15 19 8 10 1013.0 - 0.0
31/12:30am 24.3 25.1 19.8 76 2.9 NNE 15 19 8 10 1013.5 - 0.0
31/12:00am 24.1 24.9 19.8 77 2.8 NNE 15 20 8 11 1013.8 1013.7 0.0
 
Date/Time
EST
Temp
°C
App
Temp
°C
Dew
Point
Rel
Hum
%
Delta-T
°C
Wind Press
QNH
hPa
Press
MSL
hPa
Rain
since 9 am
mm
Dir
 
Spd
km/h
Gust
km/h
Spd
kts
Gust
kts
30/11:30pm 24.4 25.5 19.7 75 3.0 NNE 13 17 7 9 1014.0 - 0.0
30/11:00pm 24.4 25.6 19.9 76 2.9 NNE 13 17 7 9 1014.3 - 0.0
30/10:30pm 24.2 25.4 19.9 77 2.8 NNE 13 15 7 8 1014.3 - 0.0
30/10:00pm 24.6 25.0 19.8 74 3.1 NE 17 22 9 12 1014.0 - 0.0
30/09:30pm 24.9 25.8 20.0 74 3.2 NE 15 20 8 11 1014.0 - 0.0
30/09:00pm 24.9 25.7 19.8 73 3.3 ENE 15 19 8 10 1013.9 1013.8 0.0
30/08:30pm 24.8 25.3 20.0 74 3.1 NE 17 19 9 10 1013.5 - 0.0
30/08:00pm 24.6 25.4 19.8 74 3.1 ENE 15 19 8 10 1013.5 - 0.0
30/07:30pm 24.8 25.6 19.8 74 3.2 NE 15 19 8 10 1013.1 - 0.0
30/07:00pm 25.0 25.3 19.6 72 3.5 ENE 17 20 9 11 1013.0 - 0.0
30/06:30pm 25.2 25.0 19.4 70 3.7 ENE 19 22 10 12 1012.6 - 0.0
30/06:00pm 25.7 25.5 19.7 69 3.9 ENE 20 28 11 15 1012.2 1012.1 0.0
30/05:30pm 26.4 26.1 19.6 66 4.4 ENE 20 26 11 14 1011.8 - 0.0
30/05:00pm 27.1 26.8 18.3 58 5.6 NE 17 24 9 13 1011.7 - 0.0
30/04:30pm 27.8 26.9 18.2 56 6.1 NE 20 26 11 14 1011.7 - 0.0
30/04:00pm 28.7 27.9 18.4 53 6.6 NE 20 28 11 15 1011.7 - 0.0
30/03:30pm 27.9 27.4 19.2 59 5.6 NNE 20 30 11 16 1011.6 - 0.0
30/03:00pm 28.5 27.6 18.3 54 6.5 ENE 20 24 11 13 1011.8 1011.7 0.0
30/02:30pm 28.2 27.3 17.8 53 6.6 N 19 24 10 13 1011.9 - 0.0
30/02:00pm 28.3 27.5 18.1 54 6.5 N 19 26 10 14 1012.0 - 0.0
30/01:30pm 28.0 27.8 19.4 59 5.6 N 19 20 10 11 1012.2 - 0.0
30/01:00pm 28.9 29.0 19.2 55 6.3 N 17 28 9 15 1012.6 - 0.0
30/12:30pm 28.5 27.3 18.5 54 6.4 NNE 22 43 12 23 1013.1 - 0.0
30/12:00pm 29.0 27.9 20.2 59 5.8 ENE 26 35 14 19 1013.8 1013.7 0.0
30/11:30am 28.5 27.1 19.6 58 5.8 NE 26 35 14 19 1014.1 - 0.0
30/11:00am 28.1 27.2 19.8 60 5.4 ENE 24 32 13 17 1014.3 - 0.0
30/10:30am 28.1 27.1 19.6 60 5.5 ENE 24 30 13 16 1014.6 - 0.0
30/10:00am 28.2 27.4 20.1 61 5.3 ENE 24 32 13 17 1014.8 - 0.0
30/09:30am 27.6 26.6 19.6 61 5.2 ENE 24 30 13 16 1015.1 - 0.0
30/09:00am 26.5 25.7 19.2 64 4.7 NE 22 26 12 14 1015.0 1014.9 0.0
30/08:30am 26.3 25.8 19.1 64 4.6 ENE 20 28 11 15 1014.9 - 0.0
30/08:00am 26.3 25.7 18.8 63 4.8 ENE 20 30 11 16 1015.1 - 0.0
30/07:30am 26.4 26.5 19.1 64 4.7 SE 17 20 9 11 1015.2 - 0.0
30/07:00am 25.4 25.7 19.5 70 3.8 SSE 17 22 9 12 1015.4 - 0.0
30/06:30am 24.5 25.1 19.5 73 3.2 SSE 15 20 8 11 1015.2 - 0.0
30/06:00am 23.3 24.1 19.9 81 2.2 SSE 15 19 8 10 1014.8 1014.7 0.0
30/05:30am 23.3 25.1 20.4 84 1.9 SE 11 13 6 7 1014.5 - 0.0
30/05:00am 23.6 25.5 20.5 83 2.0 SSE 11 17 6 9 1014.1 - 0.0
30/04:30am 22.9 25.9 20.1 84 1.8 N 4 7 2 4 1012.9 - 0.0
30/04:00am 23.3 25.3 20.0 82 2.1 N 9 11 5 6 1012.4 - 0.0
30/03:30am 23.2 25.6 20.1 83 2.0 N 7 9 4 5 1012.5 - 0.0
30/03:00am 23.3 25.1 20.4 84 1.9 N 11 13 6 7 1012.3 1012.2 0.0
30/02:30am 23.3 25.5 20.4 84 1.9 N 9 11 5 6 1012.5 - 0.0
30/02:00am 23.7 25.7 20.8 84 1.9 N 11 13 6 7 1012.3 - 0.0
30/01:30am 24.0 25.7 20.9 83 2.0 N 13 15 7 8 1012.6 - 0.0
30/01:00am 24.2 25.8 20.8 81 2.2 NNE 13 15 7 8 1012.7 - 0.0
30/12:30am 23.9 25.5 20.8 83 2.0 NNE 13 15 7 8 1012.9 - 0.0
30/12:00am 24.0 26.1 20.9 83 2.0 NNE 11 13 6 7 1013.1 1013.0 0.0
 
Date/Time
EST
Temp
°C
App
Temp
°C
Dew
Point
Rel
Hum
%
Delta-T
°C
Wind Press
QNH
hPa
Press
MSL
hPa
Rain
since 9 am
mm
Dir
 
Spd
km/h
Gust
km/h
Spd
kts
Gust
kts
29/11:30pm 23.0 24.9 20.5 86 1.6 NNE 11 15 6 8 1013.3 - 0.0
29/11:00pm 23.5 25.8 20.6 84 1.9 N 9 13 5 7 1013.5 - 0.0
29/10:30pm 23.9 25.4 20.5 81 2.2 N 13 15 7 8 1013.5 - 0.0
29/10:00pm 24.0 26.2 20.5 81 2.3 N 9 11 5 6 1013.9 - 0.0
29/09:30pm 24.2 25.6 20.4 79 2.5 N 13 17 7 9 1013.7 - 0.0
29/09:00pm 24.1 25.8 20.2 79 2.5 N 11 15 6 8 1013.5 1013.4 0.0
29/08:30pm 24.2 26.3 20.2 78 2.6 N 9 11 5 6 1013.3 - 0.0

Other Formats:

Comma delimited format used in spreadsheet applications
http://www.bom.gov.au/fwo/IDQ60801/IDQ60801.94294.axf

JavaScript Object Notation format (JSON) in row-major order
http://www.bom.gov.au/fwo/IDQ60801/IDQ60801.94294.json